createdAt,value
2023-05-09T00:01:11.126Z,101771.75
2023-05-09T00:03:40.209Z,101767.34
2023-05-09T00:06:09.109Z,101763.84
2023-05-09T00:08:38.289Z,101763.03
2023-05-09T00:11:06.990Z,101763.06
2023-05-09T00:13:35.963Z,101759.53
2023-05-09T00:16:06.949Z,101752.44
2023-05-09T00:18:36.687Z,101752.44
2023-05-09T00:21:05.815Z,101756.81
2023-05-09T00:23:34.147Z,101759.41
2023-05-09T00:26:02.689Z,101748.78
2023-05-09T00:28:31.062Z,101746.97
2023-05-09T00:30:59.561Z,101746.00
2023-05-09T00:33:29.256Z,101741.56
2023-05-09T00:35:58.062Z,101734.47
2023-05-09T00:38:26.801Z,101733.59
2023-05-09T00:40:55.443Z,101722.03
2023-05-09T00:43:24.784Z,101722.03
2023-05-09T00:45:53.978Z,101718.47
2023-05-09T00:48:24.317Z,101718.44
2023-05-09T00:50:54.048Z,101712.22
2023-05-09T00:53:23.484Z,101709.56
2023-05-09T00:55:51.916Z,101713.94
2023-05-09T00:58:20.966Z,101718.38
2023-05-09T01:00:49.297Z,101704.25
2023-05-09T01:03:18.474Z,101698.09
2023-05-09T01:05:57.872Z,101700.75
2023-05-09T01:08:46.865Z,101691.00
2023-05-09T01:11:25.264Z,101683.06
2023-05-09T01:14:07.595Z,101675.16
2023-05-09T01:16:44.745Z,101674.28
2023-05-09T01:19:41.840Z,101668.97
2023-05-09T01:22:19.367Z,101665.41
2023-05-09T01:25:37.038Z,101666.41
2023-05-09T01:28:15.388Z,101654.16
2023-05-09T01:30:48.025Z,101651.59
2023-05-09T01:33:20.806Z,101648.13
2023-05-09T01:35:55.059Z,101650.88
2023-05-09T01:38:27.366Z,101650.94
2023-05-09T01:40:58.444Z,101639.56
2023-05-09T01:43:30.147Z,101640.53
2023-05-09T01:46:01.175Z,101643.25
2023-05-09T01:48:31.946Z,101638.00
2023-05-09T01:51:02.094Z,101646.81
2023-05-09T01:53:31.400Z,101643.31
2023-05-09T01:56:00.991Z,101643.38
2023-05-09T01:58:30.208Z,101633.78
2023-05-09T02:01:00.825Z,101642.69
2023-05-09T02:03:30.472Z,101634.81
2023-05-09T02:05:59.217Z,101630.50
2023-05-09T02:08:28.702Z,101628.78
2023-05-09T02:10:57.485Z,101629.72
2023-05-09T02:13:26.539Z,101632.41
2023-05-09T02:15:55.997Z,101639.50
2023-05-09T02:18:26.028Z,101641.34
2023-05-09T02:20:54.895Z,101642.25
2023-05-09T02:23:23.316Z,101641.44
2023-05-09T02:25:54.624Z,101636.16
2023-05-09T02:28:24.931Z,101633.56
2023-05-09T02:30:54.894Z,101628.28
2023-05-09T02:33:26.089Z,101627.44
2023-05-09T02:35:55.637Z,101623.94
2023-05-09T02:38:25.021Z,101624.81
2023-05-09T02:40:53.719Z,101622.16
2023-05-09T02:43:22.373Z,101629.25
2023-05-09T02:45:51.066Z,101622.22
2023-05-09T02:48:19.918Z,101616.00
2023-05-09T02:50:49.929Z,101606.28
2023-05-09T02:53:18.294Z,101611.56
2023-05-09T02:55:47.979Z,101608.06
2023-05-09T02:58:16.587Z,101610.72
2023-05-09T03:00:44.920Z,101613.34
2023-05-09T03:03:13.857Z,101600.16
2023-05-09T03:05:42.403Z,101605.47
2023-05-09T03:08:12.228Z,101590.50
2023-05-09T03:10:40.872Z,101595.81
2023-05-09T03:13:10.527Z,101594.06
2023-05-09T03:15:38.955Z,101583.53
2023-05-09T03:18:07.698Z,101584.44
2023-05-09T03:20:36.203Z,101577.41
2023-05-09T03:23:04.650Z,101581.00
2023-05-09T03:25:34.749Z,101581.06
2023-05-09T03:28:03.134Z,101576.69
2023-05-09T03:30:31.626Z,101580.25
2023-05-09T03:33:00.224Z,101582.94
2023-05-09T03:35:28.800Z,101581.22
2023-05-09T03:37:57.362Z,101580.34
2023-05-09T03:40:26.160Z,101572.41
2023-05-09T03:42:56.064Z,101562.72
2023-05-09T03:45:24.965Z,101566.25
2023-05-09T03:47:53.715Z,101562.78
2023-05-09T03:50:22.654Z,101559.28
2023-05-09T03:52:52.086Z,101563.69
2023-05-09T03:55:21.020Z,101554.03
2023-05-09T03:57:50.974Z,101557.53
2023-05-09T04:00:22.506Z,101557.53
2023-05-09T04:02:51.268Z,101561.09
2023-05-09T04:05:19.954Z,101544.38
2023-05-09T04:07:48.557Z,101554.03
2023-05-09T04:10:17.090Z,101551.38
2023-05-09T04:12:48.596Z,101559.28
2023-05-09T04:15:17.414Z,101550.44
2023-05-09T04:17:47.478Z,101556.59
2023-05-09T04:20:16.129Z,101547.69
2023-05-09T04:22:46.715Z,101552.06
2023-05-09T04:25:16.161Z,101545.88
2023-05-09T04:27:44.843Z,101542.34
2023-05-09T04:30:14.196Z,101537.00
2023-05-09T04:32:45.937Z,101545.81
2023-05-09T04:35:18.900Z,101546.72
2023-05-09T04:37:49.174Z,101535.31
2023-05-09T04:40:17.727Z,101540.66
2023-05-09T04:42:46.340Z,101539.81
2023-05-09T04:45:15.791Z,101546.00
2023-05-09T04:47:45.080Z,101539.81
2023-05-09T04:50:15.378Z,101538.06
2023-05-09T04:52:43.921Z,101538.03
2023-05-09T04:55:13.318Z,101540.66
2023-05-09T04:57:41.919Z,101520.38
2023-05-09T05:00:14.946Z,101516.81
2023-05-09T05:02:43.672Z,101515.88
2023-05-09T05:05:13.365Z,101518.50
2023-05-09T05:07:43.254Z,101526.38
2023-05-09T05:10:13.586Z,101524.53
2023-05-09T05:12:42.115Z,101519.22
2023-05-09T05:15:12.244Z,101519.19
2023-05-09T05:17:41.163Z,101512.94
2023-05-09T05:20:10.742Z,101515.50
2023-05-09T05:22:39.432Z,101520.69
2023-05-09T05:25:10.525Z,101513.50
2023-05-09T05:27:39.032Z,101503.72
2023-05-09T05:30:09.532Z,101507.16
2023-05-09T05:32:38.075Z,101502.69
2023-05-09T05:35:08.322Z,101499.94
2023-05-09T05:37:36.668Z,101501.63
2023-05-09T05:40:06.579Z,101498.91
2023-05-09T05:42:37.030Z,101497.91
2023-05-09T05:45:06.598Z,101490.75
2023-05-09T05:47:36.351Z,101495.09
2023-05-09T05:50:09.097Z,101486.22
2023-05-09T05:52:37.603Z,101488.81
2023-05-09T05:55:07.607Z,101482.56
2023-05-09T05:57:37.834Z,101487.84
2023-05-09T06:00:09.961Z,101485.13
2023-05-09T06:02:39.720Z,101482.47
2023-05-09T06:05:09.560Z,101474.47
2023-05-09T06:07:38.041Z,101483.22
2023-05-09T06:10:08.226Z,101468.16
2023-05-09T06:12:38.140Z,101465.44
2023-05-09T06:15:08.517Z,101469.88
2023-05-09T06:17:37.125Z,101459.19
2023-05-09T06:20:07.034Z,101467.13
2023-05-09T06:22:35.712Z,101460.91
2023-05-09T06:25:04.669Z,101461.75
2023-05-09T06:27:33.179Z,101466.13
2023-05-09T06:30:11.221Z,101446.66
2023-05-09T06:32:46.708Z,101445.75
2023-05-09T06:35:16.063Z,101446.53
2023-05-09T06:37:45.507Z,101437.59
2023-05-09T06:40:15.599Z,101432.13
2023-05-09T06:42:43.945Z,101431.94
2023-05-09T06:45:14.850Z,101422.06
2023-05-09T06:47:43.475Z,101411.25
2023-05-09T06:50:12.293Z,101416.31
2023-05-09T06:52:40.766Z,101405.38
2023-05-09T06:55:11.806Z,101405.78
2023-05-09T06:57:40.694Z,101412.34
2023-05-09T07:00:10.805Z,101412.03
2023-05-09T07:02:42.300Z,101411.00
2023-05-09T07:05:11.754Z,101401.13
2023-05-09T07:07:40.816Z,101397.38
2023-05-09T07:10:12.471Z,101398.19
2023-05-09T07:12:41.895Z,101391.06
2023-05-09T07:15:12.222Z,101386.75
2023-05-09T07:17:42.093Z,101394.03
2023-05-09T07:20:11.227Z,101387.13
2023-05-09T07:22:39.584Z,101392.53
2023-05-09T07:25:10.226Z,101386.38
2023-05-09T07:27:38.952Z,101388.06
2023-05-09T07:30:09.356Z,101389.88
2023-05-09T07:32:37.778Z,101390.00
2023-05-09T07:35:08.310Z,101375.06
2023-05-09T07:37:36.837Z,101372.50
2023-05-09T07:40:06.942Z,101360.16
2023-05-09T07:42:35.263Z,101362.81
2023-05-09T07:45:06.116Z,101361.88
2023-05-09T07:47:34.611Z,101360.16
2023-05-09T07:50:03.091Z,101360.19
2023-05-09T07:52:32.913Z,101362.75
2023-05-09T07:55:01.442Z,101361.03
2023-05-09T07:57:29.862Z,101362.94
2023-05-09T07:59:58.858Z,101356.88
2023-05-09T08:02:27.622Z,101343.72
2023-05-09T08:04:56.172Z,101350.88
2023-05-09T08:07:24.813Z,101345.69
2023-05-09T08:09:54.951Z,101343.03
2023-05-09T08:12:23.446Z,101339.38
2023-05-09T08:14:52.374Z,101334.69
2023-05-09T08:17:22.086Z,101338.03
2023-05-09T08:19:50.620Z,101326.38
2023-05-09T08:22:19.994Z,101331.56
2023-05-09T08:24:48.879Z,101327.91
2023-05-09T08:27:18.722Z,101324.09
2023-05-09T08:29:47.169Z,101319.47
2023-05-09T08:32:15.616Z,101315.81
2023-05-09T08:34:43.923Z,101321.88
2023-05-09T08:37:15.214Z,101321.84
2023-05-09T08:39:44.599Z,101314.75
2023-05-09T08:42:15.989Z,101316.41
2023-05-09T08:44:45.821Z,101307.22
2023-05-09T08:47:15.174Z,101306.94
2023-05-09T08:49:44.211Z,101302.19
2023-05-09T08:52:13.764Z,101309.06
2023-05-09T08:54:42.965Z,101310.53
2023-05-09T08:57:11.553Z,101297.97
2023-05-09T08:59:45.726Z,101293.03
2023-05-09T09:02:15.866Z,101296.84
2023-05-09T09:04:45.183Z,101293.41
2023-05-09T09:07:15.191Z,101292.81
2023-05-09T09:09:48.885Z,101282.44
2023-05-09T09:12:18.096Z,101281.91
2023-05-09T09:14:55.286Z,101274.00
2023-05-09T09:17:29.192Z,101273.00
2023-05-09T09:20:03.209Z,101271.84
2023-05-09T09:22:34.867Z,101260.03
2023-05-09T09:25:04.161Z,101252.00
2023-05-09T09:27:33.661Z,101254.81
2023-05-09T09:30:11.361Z,101252.13
2023-05-09T09:32:40.509Z,101255.34
2023-05-09T09:35:11.949Z,101246.97
2023-05-09T09:37:43.788Z,101235.44
2023-05-09T09:40:14.517Z,101240.41
2023-05-09T09:42:44.630Z,101231.72
2023-05-09T09:45:16.572Z,101238.06
2023-05-09T09:47:47.148Z,101237.06
2023-05-09T09:50:18.097Z,101234.28
2023-05-09T09:52:52.399Z,101235.50
2023-05-09T09:55:22.144Z,101227.81
2023-05-09T09:57:52.047Z,101227.41
2023-05-09T10:00:28.674Z,101227.69
2023-05-09T10:02:59.462Z,101217.31
2023-05-09T10:05:30.001Z,101220.81
2023-05-09T10:08:00.425Z,101225.34
2023-05-09T10:10:30.693Z,101223.47
2023-05-09T10:13:03.797Z,101221.22
2023-05-09T10:15:49.132Z,101214.44
2023-05-09T10:18:27.488Z,101217.25
2023-05-09T10:21:00.850Z,101218.56
2023-05-09T10:23:31.902Z,101216.06
2023-05-09T10:26:08.162Z,101211.84
2023-05-09T10:28:40.271Z,101207.59
2023-05-09T10:31:17.346Z,101214.31
2023-05-09T10:33:51.089Z,101204.75
2023-05-09T10:36:22.738Z,101202.09
2023-05-09T10:38:52.339Z,101193.97
2023-05-09T10:41:23.914Z,101199.44
2023-05-09T10:43:52.850Z,101205.50
2023-05-09T10:46:25.295Z,101200.59
2023-05-09T10:48:54.111Z,101199.25
2023-05-09T10:51:25.175Z,101195.66
2023-05-09T10:53:56.011Z,101188.75
2023-05-09T10:56:27.533Z,101180.84
2023-05-09T10:58:56.435Z,101183.94
2023-05-09T11:01:35.544Z,101178.94
2023-05-09T11:04:11.218Z,101176.47
2023-05-09T11:06:51.564Z,101178.34
2023-05-09T11:09:38.215Z,101177.66
2023-05-09T11:12:12.385Z,101174.03
2023-05-09T11:14:44.618Z,101176.59
2023-05-09T11:17:16.144Z,101169.13
2023-05-09T11:20:03.660Z,101171.31
2023-05-09T11:22:34.655Z,101160.75
2023-05-09T11:25:09.331Z,101157.19
2023-05-09T11:27:47.133Z,101152.38
2023-05-09T11:30:19.139Z,101151.97
2023-05-09T11:32:53.415Z,101143.63
2023-05-09T11:35:24.468Z,101143.47
2023-05-09T11:38:00.379Z,101137.94
2023-05-09T11:40:31.056Z,101142.81
2023-05-09T11:43:01.593Z,101133.72
2023-05-09T11:45:33.793Z,101126.53
2023-05-09T11:48:10.262Z,101129.94
2023-05-09T11:50:38.780Z,101125.53
2023-05-09T11:53:08.536Z,101121.44
2023-05-09T11:55:39.562Z,101116.91
2023-05-09T11:58:09.722Z,101117.34
2023-05-09T12:00:45.750Z,101112.03
2023-05-09T12:03:15.816Z,101108.38
2023-05-09T12:05:44.654Z,101093.19
2023-05-09T12:08:15.554Z,101088.97
2023-05-09T12:10:43.871Z,101084.91
2023-05-09T12:13:12.520Z,101087.66
2023-05-09T12:15:43.179Z,101084.34
2023-05-09T12:18:11.764Z,101079.91
2023-05-09T12:20:47.606Z,101081.00
2023-05-09T12:23:16.693Z,101083.00
2023-05-09T12:25:55.204Z,101074.16
2023-05-09T12:28:26.321Z,101072.47
2023-05-09T12:30:56.339Z,101073.78
2023-05-09T12:33:25.138Z,101069.25
2023-05-09T12:36:07.010Z,101059.28
2023-05-09T12:38:35.455Z,101057.78
2023-05-09T12:41:05.738Z,101059.91
2023-05-09T12:43:35.659Z,101054.03
2023-05-09T12:46:05.420Z,101047.63
2023-05-09T12:48:40.105Z,101039.59
2023-05-09T12:51:10.065Z,101037.78
2023-05-09T12:53:43.312Z,101048.47
2023-05-09T12:56:16.804Z,101043.91
2023-05-09T12:58:51.985Z,101032.88
2023-05-09T13:01:25.791Z,101039.19
2023-05-09T13:04:01.331Z,101033.56
2023-05-09T13:06:31.379Z,101029.19
2023-05-09T13:09:01.782Z,101026.41
2023-05-09T13:11:31.064Z,101023.97
2023-05-09T13:14:00.261Z,101022.44
2023-05-09T13:16:28.933Z,101027.16
2023-05-09T13:18:58.004Z,101023.97
2023-05-09T13:21:26.636Z,101009.59
2023-05-09T13:23:56.380Z,101010.41
2023-05-09T13:26:25.130Z,101014.63
2023-05-09T13:28:53.446Z,101016.50
2023-05-09T13:31:22.838Z,101004.03
2023-05-09T13:33:52.109Z,101007.06
2023-05-09T13:36:21.506Z,100984.19
2023-05-09T13:38:50.389Z,100977.53
2023-05-09T13:41:24.335Z,100979.31
2023-05-09T13:43:54.201Z,100973.97
2023-05-09T13:46:23.028Z,100966.16
2023-05-09T13:48:51.780Z,100952.16
2023-05-09T13:51:21.984Z,100953.81
2023-05-09T13:53:50.481Z,100960.97
2023-05-09T13:56:21.347Z,100959.34
2023-05-09T13:58:51.016Z,100954.97
2023-05-09T14:01:20.474Z,100955.03
2023-05-09T14:03:49.335Z,100963.38
2023-05-09T14:06:17.930Z,100966.69
2023-05-09T14:08:46.274Z,100972.59
2023-05-09T14:11:14.757Z,100974.06
2023-05-09T14:13:44.856Z,100971.06
2023-05-09T14:16:13.883Z,100970.19
2023-05-09T14:21:49.020Z,100969.63
2023-05-09T14:24:17.957Z,100961.09
2023-05-09T14:26:46.702Z,100967.75
2023-05-09T14:29:17.653Z,100964.00
2023-05-09T14:31:46.264Z,100966.25
2023-05-09T14:34:14.954Z,100980.06
2023-05-09T14:36:43.482Z,100967.22
2023-05-09T14:39:12.038Z,100961.22
2023-05-09T14:41:40.555Z,100959.22
2023-05-09T14:44:09.017Z,100946.72
2023-05-09T14:46:39.423Z,100957.38
2023-05-09T14:49:09.083Z,100939.41
2023-05-09T14:51:37.851Z,100939.34
2023-05-09T14:54:06.663Z,100944.63
2023-05-09T14:56:35.425Z,100938.34
2023-05-09T14:59:04.352Z,100933.94
2023-05-09T15:01:33.145Z,100929.44
2023-05-09T15:04:02.889Z,100931.31
2023-05-09T15:06:31.261Z,100931.28
2023-05-09T15:08:59.689Z,100939.19
2023-05-09T15:11:28.737Z,100932.19
2023-05-09T15:13:59.324Z,100928.66
2023-05-09T15:16:28.469Z,100935.19
2023-05-09T15:18:59.807Z,100930.19
2023-05-09T15:21:35.670Z,100926.84
2023-05-09T15:24:04.043Z,100930.44
2023-05-09T15:26:32.534Z,100928.69
2023-05-09T15:29:01.145Z,100922.63
2023-05-09T15:31:34.391Z,100929.00
2023-05-09T15:34:02.717Z,100921.22
2023-05-09T15:36:34.855Z,100922.25
2023-05-09T15:39:05.053Z,100919.66
2023-05-09T15:41:33.356Z,100914.31
2023-05-09T15:44:01.741Z,100912.50
2023-05-09T15:46:30.374Z,100917.00
2023-05-09T15:48:59.273Z,100918.81
2023-05-09T15:51:30.090Z,100913.38
2023-05-09T15:54:00.005Z,100916.81
2023-05-09T15:56:28.588Z,100913.28
2023-05-09T15:58:57.581Z,100909.78
2023-05-09T16:01:26.408Z,100909.66
2023-05-09T16:03:55.342Z,100904.25
2023-05-09T16:06:24.553Z,100907.00
2023-05-09T16:08:53.807Z,100906.22
2023-05-09T16:11:23.577Z,100900.34
2023-05-09T16:13:52.449Z,100901.69
2023-05-09T16:16:21.439Z,100904.00
2023-05-09T16:18:50.228Z,100897.56
2023-05-09T16:21:19.928Z,100893.69
2023-05-09T16:23:51.016Z,100885.16
2023-05-09T16:26:20.544Z,100884.56
2023-05-09T16:28:51.695Z,100889.88
2023-05-09T16:31:21.025Z,100885.50
2023-05-09T16:33:49.498Z,100886.41
2023-05-09T16:36:17.823Z,100884.06
2023-05-09T16:38:46.194Z,100883.47
2023-05-09T16:41:17.190Z,100880.16
2023-05-09T16:43:46.013Z,100876.72
2023-05-09T16:46:16.048Z,100869.81
2023-05-09T16:48:44.416Z,100873.47
2023-05-09T16:51:12.725Z,100866.56
2023-05-09T16:53:41.238Z,100869.22
2023-05-09T16:56:11.062Z,100868.25
2023-05-09T16:58:40.677Z,100863.78
2023-05-09T17:01:09.102Z,100869.97
2023-05-09T17:03:38.903Z,100853.22
2023-05-09T17:06:08.077Z,100859.38
2023-05-09T17:08:36.340Z,100861.13
2023-05-09T17:11:05.488Z,100858.38
2023-05-09T17:13:33.780Z,100859.38
2023-05-09T17:16:02.132Z,100858.78
2023-05-09T17:18:37.780Z,100862.50
2023-05-09T17:21:08.906Z,100862.84
2023-05-09T17:23:37.470Z,100856.06
2023-05-09T17:26:05.910Z,100850.91
2023-05-09T17:28:34.338Z,100852.81
2023-05-09T17:31:03.554Z,100850.25
2023-05-09T17:33:31.886Z,100850.31
2023-05-09T17:36:00.882Z,100845.13
2023-05-09T17:38:30.788Z,100844.97
2023-05-09T17:40:59.133Z,100844.78
2023-05-09T17:43:28.502Z,100836.91
2023-05-09T17:45:57.420Z,100833.31
2023-05-09T17:48:26.285Z,100834.19
2023-05-09T17:50:54.505Z,100835.00
2023-05-09T17:53:22.958Z,100831.38
2023-05-09T17:55:52.888Z,100833.97
2023-05-09T17:58:23.977Z,100834.78
2023-05-09T18:00:55.400Z,100827.78
2023-05-09T18:03:23.850Z,100822.53
2023-05-09T18:05:52.896Z,100822.59
2023-05-09T18:08:22.448Z,100820.00
2023-05-09T18:10:54.603Z,100820.91
2023-05-09T18:13:25.317Z,100824.50
2023-05-09T18:15:55.285Z,100825.50
2023-05-09T18:18:23.679Z,100822.00
2023-05-09T18:20:52.307Z,100820.28
2023-05-09T18:23:21.862Z,100818.63
2023-05-09T18:25:50.349Z,100822.19
2023-05-09T18:28:29.087Z,100816.00
2023-05-09T18:30:59.820Z,100815.06
2023-05-09T18:33:29.848Z,100816.81
2023-05-09T18:35:58.413Z,100815.94
2023-05-09T18:38:27.976Z,100810.72
2023-05-09T18:40:56.617Z,100808.13
2023-05-09T18:43:27.319Z,100809.00
2023-05-09T18:45:57.177Z,100804.63
2023-05-09T18:48:26.294Z,100812.66
2023-05-09T18:50:54.668Z,100808.19
2023-05-09T18:53:26.411Z,100802.88
2023-05-09T18:55:56.442Z,100807.34
2023-05-09T18:58:26.674Z,100807.41
2023-05-09T19:00:56.888Z,100812.66
2023-05-09T19:03:27.286Z,100808.25
2023-05-09T19:05:56.674Z,100815.28
2023-05-09T19:08:26.324Z,100808.38
2023-05-09T19:10:54.889Z,100813.88
2023-05-09T19:13:23.436Z,100817.59
2023-05-09T19:15:54.198Z,100816.84
2023-05-09T19:18:23.186Z,100816.97
2023-05-09T19:20:51.651Z,100815.28
2023-05-09T19:23:20.463Z,100821.53
2023-05-09T19:25:49.969Z,100818.16
2023-05-09T19:28:18.937Z,100820.94
2023-05-09T19:30:49.371Z,100830.69
2023-05-09T19:33:19.699Z,100821.91
2023-05-09T19:35:48.138Z,100823.81
2023-05-09T19:38:16.540Z,100824.72
2023-05-09T19:40:44.920Z,100823.88
2023-05-09T19:43:14.050Z,100825.69
2023-05-09T19:45:42.565Z,100823.16
2023-05-09T19:48:15.153Z,100822.34
2023-05-09T19:50:46.652Z,100818.84
2023-05-09T19:53:15.203Z,100822.34
2023-05-09T19:55:46.899Z,100817.97
2023-05-09T19:58:17.725Z,100817.06
2023-05-09T20:00:46.861Z,100818.88
2023-05-09T20:03:15.369Z,100820.63
2023-05-09T20:05:45.327Z,100817.09
2023-05-09T20:08:14.011Z,100810.94
2023-05-09T20:10:42.859Z,100820.63
2023-05-09T20:13:11.784Z,100815.34
2023-05-09T20:15:40.373Z,100818.81
2023-05-09T20:18:23.881Z,100818.84
2023-05-09T20:20:55.233Z,100812.69
2023-05-09T20:23:24.556Z,100808.34
2023-05-09T20:25:53.507Z,100811.88
2023-05-09T20:28:22.622Z,100810.22
2023-05-09T20:30:51.813Z,100807.63
2023-05-09T20:33:27.757Z,100800.66
2023-05-09T20:35:58.258Z,100795.47
2023-05-09T20:38:27.816Z,100798.19
2023-05-09T20:40:56.660Z,100798.31
2023-05-09T20:43:27.617Z,100802.78
2023-05-09T20:45:56.841Z,100801.03
2023-05-09T20:48:42.641Z,100804.59
2023-05-09T20:51:12.675Z,100804.75
2023-05-09T20:53:41.099Z,100805.69
2023-05-09T20:56:09.578Z,100798.72
2023-05-09T20:58:38.054Z,100797.81
2023-05-09T21:01:06.588Z,100796.97
2023-05-09T21:03:35.195Z,100801.41
2023-05-09T21:06:03.730Z,100800.59
2023-05-09T21:08:34.230Z,100797.13
2023-05-09T21:11:02.817Z,100795.38
2023-05-09T21:13:31.547Z,100788.38
2023-05-09T21:16:00.105Z,100793.72
2023-05-09T21:18:29.120Z,100792.03
2023-05-09T21:20:58.590Z,100798.22
2023-05-09T21:23:27.650Z,100789.50
2023-05-09T21:25:59.412Z,100793.88
2023-05-09T21:28:28.784Z,100785.06
2023-05-09T21:30:59.960Z,100786.78
2023-05-09T21:33:29.121Z,100787.69
2023-05-09T21:35:59.278Z,100785.06
2023-05-09T21:38:28.120Z,100784.16
2023-05-09T21:40:58.510Z,100777.06
2023-05-09T21:43:29.064Z,100776.22
2023-05-09T21:45:58.283Z,100778.00
2023-05-09T21:48:27.722Z,100780.63
2023-05-09T21:50:56.839Z,100776.22
2023-05-09T21:53:25.662Z,100776.22
2023-05-09T21:55:54.061Z,100771.84
2023-05-09T21:58:23.786Z,100768.25
2023-05-09T22:00:52.050Z,100765.53
2023-05-09T22:03:20.483Z,100757.69
2023-05-09T22:05:48.912Z,100756.00
2023-05-09T22:08:17.175Z,100751.63
2023-05-09T22:10:45.643Z,100761.31
2023-05-09T22:13:13.975Z,100757.84
2023-05-09T22:15:43.816Z,100760.53
2023-05-09T22:18:12.405Z,100753.47
2023-05-09T22:20:40.816Z,100751.75
2023-05-09T22:23:09.151Z,100748.25
2023-05-09T22:25:37.904Z,100749.19
2023-05-09T22:28:06.524Z,100753.66
2023-05-09T22:30:35.192Z,100751.09
2023-05-09T22:33:04.983Z,100759.94
2023-05-09T22:35:33.519Z,100754.72
2023-05-09T22:38:02.364Z,100748.59
2023-05-09T22:40:31.565Z,100754.78
2023-05-09T22:42:59.882Z,100752.16
2023-05-09T22:45:28.280Z,100747.81
2023-05-09T22:47:56.781Z,100739.88
2023-05-09T22:50:26.841Z,100744.31
2023-05-09T22:52:57.912Z,100749.63
2023-05-09T22:55:26.526Z,100742.63
2023-05-09T22:57:54.784Z,100750.50
2023-05-09T23:00:23.896Z,100740.00
2023-05-09T23:02:52.832Z,100741.78
2023-05-09T23:05:21.949Z,100737.44
2023-05-09T23:07:52.070Z,100736.53
2023-05-09T23:10:20.888Z,100745.38
2023-05-09T23:12:49.241Z,100739.22
2023-05-09T23:15:17.623Z,100740.09
2023-05-09T23:17:46.079Z,100733.94
2023-05-09T23:20:14.819Z,100745.38
2023-05-09T23:22:43.454Z,100740.09
2023-05-09T23:25:13.121Z,100735.72
2023-05-09T23:27:41.921Z,100733.09
2023-05-09T23:30:11.813Z,100726.91
2023-05-09T23:32:40.602Z,100731.25
2023-05-09T23:35:09.507Z,100730.41
2023-05-09T23:37:37.878Z,100725.13
2023-05-09T23:40:07.700Z,100730.44
2023-05-09T23:42:37.457Z,100723.38
2023-05-09T23:45:06.921Z,100723.38
2023-05-09T23:47:35.174Z,100729.53
2023-05-09T23:50:03.438Z,100719.84
2023-05-09T23:52:31.771Z,100719.81
2023-05-09T23:55:00.524Z,100723.31
2023-05-09T23:57:28.789Z,100717.19
2023-05-09T23:59:58.798Z,100715.44
